Centerville, TX

10:25 PM CST on March 03, 2015 (GMT -0600)
Hearne | Change Station
CLOSE
Current Station
Airport
Location: Hearne,
Elevation: 285 ft
Nearby Weather Stations
Active Advisory: Winter Weather Advisory

Elev 285 ft 30.87 °N, 96.62 °W | Updated 10 minutes ago

Mostly Cloudy
Mostly Cloudy
57 °F
Feels Like 57 °F
N
0
Wind Variable Wind from North

Today
High -- | Low -- °F
--% Chance of Precip.
Yesterday
High -- | Low -- °F
Precip. -- in
6:48 AM 6:23 PM
Waxing Gibbous, 98% visible
Pressure 29.90 in
Visibility 5.0 miles
Clouds Overcast 1400 ft
Dew Point 57 °F
Humidity 98%
Rainfall 0.02 in
Snow Depth Not available.
UV 0 out of 12
Pollen 8.40 out of 12
Air Quality Not available.
Flu Activity Not available.
METAR KLHB 040415Z AUTO 00000KT 5SM BR OVC014 14/14 A2990 RMK AO2 T01400137

More Conditions Fewer Conditions

Pressure 29.90 in
Visibility 5.0 miles
Clouds Overcast 1400 ft
Dew Point 57 °F
Humidity 98%
Rainfall 0.02 in
Snow Depth Not available.
UV 0 out of 12
Pollen 8.40 out of 12
Air Quality Not available.
Flu Activity Not available.
METAR KLHB 040415Z AUTO 00000KT 5SM BR OVC014 14/14 A2990 RMK AO2 T01400137

More Conditions Fewer Conditions

10-Day Weather Forecast

Almanac

Astronomy

Mar. 03, 2015 Rise Set
Actual Time
Civil Twilight
Nautical Twilight
Astronomical Twilight
Moon
Length of Visible Light
Length of Day
Tomorrow will be .
, % of the Moon is Illuminated

Today's Extremes

State Highs State Lows

Community

WunderPhotos

Upload Photos

1,802,383 photos uploaded!

WunderBlogs® & News

Nearby

Air Quality

  Air Quality AQ Index Pollutant
Not available.

Snow Depth

Station Depth Elevation

Earthquake Activity

City Distance Mag. Time & Date
Minimum magnitude displayed is 2.5.

Coastal Water Temperatures

Place Temperature

Nearby Weather Stations

Winter Weather Advisory
Statement as of 10:09 PM CST on March 03, 2015

... Winter Weather Advisory remains in effect from midnight
Wednesday night to noon CST Thursday...

* timing... midnight Wednesday night through noon Thursday.

* Precipitation type... freezing rain... mixing with or changing
to light sleet.

* Accumulation... up to one tenth of an inch of ice and up to one
half inch of sleet.

* Main impact... ice and sleet will create hazardous travel
conditions... especially overnight Wednesday through late
morning Thursday.

Precautionary/preparedness actions...

A Winter Weather Advisory means that periods of winter
precipitation may cause travel difficulties. Be prepared for
slippery roads and plan on some travel delays.



Dunn